Time;durP1;ratioP1;P1;durP2;ratioP2;P2;SDS_P1;SDS_P2;PMS_P1;PMS_P2;Temp;Humidity;BMP_temperature;BMP_pressure;BME280_temperature;BME280_humidity;BME280_pressure;Samples;Min_cycle;Max_cycle;Signal;HPM_P1;HPM_P2
2022/05/13 00:01:29;;;;;;;;;;;;;;;10.49;74.00;98099.25;4772767;30;19921;-77
2022/05/13 00:03:55;;;;;;;;;;;;;;;10.46;73.79;98109.72;4801988;29;20400;-77
2022/05/13 00:06:20;;;;;;;;;;;;;;;10.43;73.39;98104.59;4793207;29;20378;-77
2022/05/13 00:08:46;;;;;;;;;;;;;;;10.40;73.72;98089.13;4795441;29;19982;-78
2022/05/13 00:11:11;;;;;;;;;;;;;;;10.37;74.01;98108.22;4788524;29;20301;-77
2022/05/13 00:13:37;;;;;;;;;;;;;;;10.38;73.29;98101.28;4796185;29;20395;-76
2022/05/13 00:16:04;;;;;;;;;;;;;;;10.40;72.92;98102.09;4793150;29;19975;-77
2022/05/13 00:18:30;;;;;;;;;;;;;;;10.27;72.11;98108.53;4788675;29;19928;-76
2022/05/13 00:20:55;;;;;;;;;;;;;;;10.24;72.45;98117.22;4772325;30;20012;-77
2022/05/13 00:23:21;;;;;;;;;;;;;;;10.23;72.06;98112.06;4789227;29;20393;-77
2022/05/13 00:25:46;;;;;;;;;;;;;;;10.23;72.09;98117.25;4782060;30;20398;-77
2022/05/13 00:28:13;;;;;;;;;;;;;;;10.22;71.52;98105.16;4804222;29;19924;-77
2022/05/13 00:30:40;;;;;;;;;;;;;;;10.27;70.94;98121.50;4792619;29;19925;-76
2022/05/13 00:33:05;;;;;;;;;;;;;;;10.26;71.05;98127.53;4795879;29;20396;-77
2022/05/13 00:35:31;;;;;;;;;;;;;;;10.17;70.82;98113.94;4800487;29;19922;-77
2022/05/13 00:37:56;;;;;;;;;;;;;;;10.10;71.24;98122.75;4796173;29;20424;-77
2022/05/13 00:40:22;;;;;;;;;;;;;;;10.07;71.47;98124.56;4791486;29;19922;-77
2022/05/13 00:42:48;;;;;;;;;;;;;;;10.12;71.61;98131.31;4788298;29;19917;-77
2022/05/13 00:45:14;;;;;;;;;;;;;;;10.02;71.73;98134.19;4793477;29;19925;-77
2022/05/13 00:47:40;;;;;;;;;;;;;;;9.97;72.15;98152.47;4795553;29;19917;-77
2022/05/13 00:50:06;;;;;;;;;;;;;;;10.02;72.08;98150.59;4791336;29;20007;-77
2022/05/13 00:52:31;;;;;;;;;;;;;;;9.96;71.99;98145.59;4789552;29;20007;-79
2022/05/13 00:54:57;;;;;;;;;;;;;;;9.91;72.67;98150.03;4787275;30;19921;-78
2022/05/13 00:57:22;;;;;;;;;;;;;;;9.88;72.25;98150.94;4790135;29;19942;-77
2022/05/13 00:59:49;;;;;;;;;;;;;;;9.76;73.11;98163.34;4787603;29;19921;-77
2022/05/13 01:02:15;;;;;;;;;;;;;;;9.75;73.28;98166.84;4790374;29;19929;-77
2022/05/13 01:04:41;;;;;;;;;;;;;;;9.70;73.46;98174.72;4786728;29;20010;-76
2022/05/13 01:07:08;;;;;;;;;;;;;;;9.61;73.84;98175.78;4786799;29;19979;-77
2022/05/13 01:09:35;;;;;;;;;;;;;;;9.50;73.92;98171.75;4778758;30;20305;-76
2022/05/13 01:12:02;;;;;;;;;;;;;;;9.39;74.91;98165.09;4789388;29;20282;-77
2022/05/13 01:14:35;;;;;;;;;;;;;;;9.34;75.27;98179.88;4796419;29;20345;-77
2022/05/13 01:20:04;;;;;;;;;;;;;;;9.28;76.58;98179.16;4798371;29;19920;-77
2022/05/13 01:22:30;;;;;;;;;;;;;;;9.29;76.73;98178.28;4791708;29;19923;-77
2022/05/13 01:24:56;;;;;;;;;;;;;;;9.22;77.23;98177.56;4793970;29;20548;-77
2022/05/13 01:27:21;;;;;;;;;;;;;;;9.24;77.70;98183.56;4786543;29;19924;-78
2022/05/13 01:29:48;;;;;;;;;;;;;;;9.14;78.18;98180.31;4795826;29;20363;-76
2022/05/13 01:32:14;;;;;;;;;;;;;;;9.13;78.81;98182.94;4792049;29;20011;-77
2022/05/13 01:34:40;;;;;;;;;;;;;;;9.14;79.07;98184.66;4799418;29;20020;-76
2022/05/13 01:37:05;;;;;;;;;;;;;;;9.14;78.75;98193.25;4771783;30;19917;-79
2022/05/13 01:39:31;;;;;;;;;;;;;;;9.08;79.31;98193.41;4800513;29;20358;-77
2022/05/13 01:41:56;;;;;;;;;;;;;;;9.10;79.57;98188.19;4788168;29;19917;-76
2022/05/13 01:44:22;;;;;;;;;;;;;;;9.01;79.84;98194.41;4787836;29;20085;-78
2022/05/13 01:46:47;;;;;;;;;;;;;;;9.12;79.17;98183.84;4788015;29;19944;-77
2022/05/13 01:49:13;;;;;;;;;;;;;;;9.10;79.45;98193.34;4787460;29;19944;-76
2022/05/13 01:51:38;;;;;;;;;;;;;;;9.04;79.68;98207.28;4787111;29;20005;-76
2022/05/13 01:54:04;;;;;;;;;;;;;;;9.04;79.35;98198.66;4786925;29;19936;-77
2022/05/13 01:56:30;;;;;;;;;;;;;;;9.01;79.64;98199.56;4787000;29;19975;-78
2022/05/13 01:58:56;;;;;;;;;;;;;;;9.04;79.40;98207.28;4788624;29;20012;-76
2022/05/13 02:01:21;;;;;;;;;;;;;;;9.05;79.34;98208.13;4794086;29;19999;-76
2022/05/13 02:03:47;;;;;;;;;;;;;;;9.04;80.03;98201.25;4794565;29;19928;-77
2022/05/13 02:06:17;;;;;;;;;;;;;;;9.09;79.13;98218.38;4786072;30;20444;-77
2022/05/13 02:08:42;;;;;;;;;;;;;;;9.16;79.31;98212.19;4792693;29;20411;-77
2022/05/13 02:11:08;;;;;;;;;;;;;;;9.08;79.06;98208.91;4794240;29;19949;-76
2022/05/13 02:13:33;;;;;;;;;;;;;;;9.08;79.45;98210.66;4794179;29;20009;-77
2022/05/13 02:15:59;;;;;;;;;;;;;;;9.04;79.62;98225.38;4800826;29;19956;-77
2022/05/13 02:18:25;;;;;;;;;;;;;;;9.09;79.27;98220.97;4803028;29;19932;-77
2022/05/13 02:20:50;;;;;;;;;;;;;;;9.07;79.37;98222.75;4795308;29;19946;-77
2022/05/13 02:23:20;;;;;;;;;;;;;;;9.13;78.75;98222.59;4797278;29;19976;-77
2022/05/13 02:25:45;;;;;;;;;;;;;;;9.04;79.29;98225.38;4801915;29;20346;-77
2022/05/13 02:28:11;;;;;;;;;;;;;;;9.09;79.42;98214.94;4798814;29;19921;-77
2022/05/13 02:30:36;;;;;;;;;;;;;;;9.08;78.96;98223.59;4793621;29;20016;-77
2022/05/13 02:33:02;;;;;;;;;;;;;;;9.16;79.00;98217.38;4799467;29;19922;-77
2022/05/13 02:35:27;;;;;;;;;;;;;;;9.09;79.17;98218.38;4790557;29;19947;-77
2022/05/13 02:37:53;;;;;;;;;;;;;;;9.16;79.09;98209.63;4803171;29;20338;-78
2022/05/13 02:40:18;;;;;;;;;;;;;;;9.16;79.39;98217.38;4790221;30;19917;-79
2022/05/13 02:42:44;;;;;;;;;;;;;;;9.18;78.87;98222.50;4801960;29;19967;-77
2022/05/13 02:45:09;;;;;;;;;;;;;;;9.24;78.29;98216.34;4796932;29;19944;-77
2022/05/13 02:47:38;;;;;;;;;;;;;;;9.22;78.59;98218.13;4794721;29;19928;-77
2022/05/13 02:50:19;;;;;;;;;;;;;;;9.26;77.71;98227.53;4789075;30;19954;-78
2022/05/13 02:52:45;;;;;;;;;;;;;;;9.30;77.79;98232.59;4802598;29;19929;-77
2022/05/13 02:55:11;;;;;;;;;;;;;;;9.32;77.62;98219.63;4790338;29;19921;-76
2022/05/13 02:57:36;;;;;;;;;;;;;;;9.39;76.93;98221.16;4791395;29;19974;-76
2022/05/13 03:00:05;;;;;;;;;;;;;;;9.44;76.62;98221.94;4799592;29;19924;-77
2022/05/13 03:02:30;;;;;;;;;;;;;;;9.47;76.44;98229.63;4788969;29;19944;-77
2022/05/13 03:04:56;;;;;;;;;;;;;;;9.46;75.77;98227.94;4801236;29;19930;-77
2022/05/13 03:07:21;;;;;;;;;;;;;;;9.53;75.44;98224.31;4798571;29;20012;-78
2022/05/13 03:09:47;;;;;;;;;;;;;;;9.56;75.36;98220.78;4795371;29;19940;-78
2022/05/13 03:12:13;;;;;;;;;;;;;;;9.61;74.50;98222.38;4800454;29;20065;-77
2022/05/13 03:14:38;;;;;;;;;;;;;;;9.66;74.68;98228.31;4790413;29;19924;-77
2022/05/13 03:17:04;;;;;;;;;;;;;;;9.70;74.01;98221.31;4801405;29;19964;-79
2022/05/13 03:19:30;;;;;;;;;;;;;;;9.77;73.45;98232.41;4799053;29;19970;-78
2022/05/13 03:21:56;;;;;;;;;;;;;;;9.78;74.05;98228.91;4790234;29;19925;-77
2022/05/13 03:24:21;;;;;;;;;;;;;;;9.85;73.60;98235.63;4794755;29;20335;-77
2022/05/13 03:26:47;;;;;;;;;;;;;;;9.88;73.36;98230.41;4794484;29;20008;-77
2022/05/13 03:29:12;;;;;;;;;;;;;;;9.94;73.19;98227.66;4802313;29;19952;-77
2022/05/13 03:31:38;;;;;;;;;;;;;;;9.96;72.71;98235.41;4792152;29;19963;-79
2022/05/13 03:34:03;;;;;;;;;;;;;;;9.91;72.36;98231.19;4792344;29;19940;-76
2022/05/13 03:36:31;;;;;;;;;;;;;;;9.91;72.35;98238.94;4788696;29;20332;-78
2022/05/13 03:38:56;;;;;;;;;;;;;;;10.01;73.05;98236.97;4785087;29;20445;-77
2022/05/13 03:41:22;;;;;;;;;;;;;;;10.30;71.42;98231.09;4789414;29;20020;-77
2022/05/13 03:43:47;;;;;;;;;;;;;;;10.59;70.71;98238.13;4799064;29;19917;-77
2022/05/13 03:46:13;;;;;;;;;;;;;;;10.67;69.20;98236.19;4793240;29;19925;-77
2022/05/13 03:48:38;;;;;;;;;;;;;;;10.75;68.71;98250.66;4797361;29;19917;-76
2022/05/13 03:51:04;;;;;;;;;;;;;;;10.82;69.06;98249.63;4789015;29;19972;-76
2022/05/13 03:53:29;;;;;;;;;;;;;;;10.88;67.66;98252.88;4799864;29;19925;-78
2022/05/13 03:55:55;;;;;;;;;;;;;;;11.01;67.16;98240.41;4799699;29;20024;-78
2022/05/13 03:58:20;;;;;;;;;;;;;;;11.09;67.02;98238.44;4791781;29;19921;-76
2022/05/13 04:00:46;;;;;;;;;;;;;;;11.32;66.95;98249.91;4800823;29;19944;-77
2022/05/13 04:03:12;;;;;;;;;;;;;;;11.41;66.02;98245.28;4791442;29;19917;-77
2022/05/13 04:11:06;;;;;;;;;;;;;;;11.60;65.58;98248.19;4786263;29;19921;-77
2022/05/13 04:16:15;;;;;;;;;;;;;;;11.55;65.22;98255.25;4786097;29;19927;-77
2022/05/13 04:18:42;;;;;;;;;;;;;;;11.59;64.49;98259.47;4787679;29;20491;-77
2022/05/13 04:21:10;;;;;;;;;;;;;;;11.65;64.66;98248.03;4786628;29;19953;-78
2022/05/13 04:23:36;;;;;;;;;;;;;;;11.80;65.17;98251.91;4787023;29;19928;-79
2022/05/13 04:26:01;;;;;;;;;;;;;;;11.94;63.35;98267.94;4787814;29;19925;-78
2022/05/13 04:28:27;;;;;;;;;;;;;;;11.97;63.29;98261.78;4780785;29;19924;-77
2022/05/13 04:30:53;;;;;;;;;;;;;;;11.97;63.60;98262.63;4785797;30;20007;-77
2022/05/13 04:33:18;;;;;;;;;;;;;;;12.10;63.42;98263.09;4787499;29;20008;-78
2022/05/13 04:35:44;;;;;;;;;;;;;;;12.11;62.55;98260.44;4787842;29;19975;-78
2022/05/13 04:38:09;;;;;;;;;;;;;;;12.23;62.63;98264.38;4787962;29;19921;-78
2022/05/13 04:40:35;;;;;;;;;;;;;;;12.17;63.24;98270.63;4786682;29;19947;-77
2022/05/13 04:43:00;;;;;;;;;;;;;;;12.20;62.69;98254.09;4784466;30;20313;-77
2022/05/13 04:45:27;;;;;;;;;;;;;;;12.28;62.44;98262.50;4787406;29;19925;-78
2022/05/13 04:50:40;;;;;;;;;;;;;;;12.28;62.54;98269.41;4787526;29;19921;-77
2022/05/13 04:53:06;;;;;;;;;;;;;;;12.34;62.72;98257.06;4781611;29;19979;-78
2022/05/13 04:55:32;;;;;;;;;;;;;;;12.35;61.96;98266.56;4787648;29;20012;-78
2022/05/13 04:57:57;;;;;;;;;;;;;;;12.49;62.06;98258.31;4787190;29;19921;-76
2022/05/13 05:00:23;;;;;;;;;;;;;;;12.55;60.90;98268.50;4789658;29;19921;-76
2022/05/13 05:02:48;;;;;;;;;;;;;;;12.55;59.67;98271.09;4793139;29;19917;-76
2022/05/13 05:05:14;;;;;;;;;;;;;;;12.69;59.19;98281.91;4799227;29;19933;-78
2022/05/13 05:07:39;;;;;;;;;;;;;;;12.64;59.02;98273.38;4798078;29;19917;-77
2022/05/13 05:10:05;;;;;;;;;;;;;;;12.66;59.92;98282.00;4791726;29;19928;-78
2022/05/13 05:12:30;;;;;;;;;;;;;;;12.63;60.06;98279.47;4795735;29;19970;-77
2022/05/13 05:14:58;;;;;;;;;;;;;;;12.49;59.41;98279.09;4800295;29;19921;-76
2022/05/13 05:17:23;;;;;;;;;;;;;;;12.62;59.40;98276.94;4775122;29;19917;-78
2022/05/13 05:19:48;;;;;;;;;;;;;;;12.69;59.10;98274.09;4785917;29;19944;-78
2022/05/13 05:22:14;;;;;;;;;;;;;;;12.68;59.20;98276.72;4798376;29;19922;-78
2022/05/13 05:24:39;;;;;;;;;;;;;;;12.87;59.15;98271.72;4797451;29;19925;-78
2022/05/13 05:27:09;;;;;;;;;;;;;;;12.91;58.40;98262.91;4792427;29;19917;-78
2022/05/13 05:29:35;;;;;;;;;;;;;;;12.79;58.48;98273.78;4795454;29;19925;-79
2022/05/13 05:32:00;;;;;;;;;;;;;;;12.69;59.00;98276.69;4798652;29;19923;-76
2022/05/13 05:34:26;;;;;;;;;;;;;;;12.65;58.74;98274.25;4792323;29;19957;-76
2022/05/13 05:36:51;;;;;;;;;;;;;;;12.89;58.80;98275.13;4794387;29;19917;-78
2022/05/13 05:39:17;;;;;;;;;;;;;;;12.89;57.95;98270.78;4790537;29;19925;-77
2022/05/13 05:41:42;;;;;;;;;;;;;;;12.84;57.92;98279.66;4796789;29;19925;-78
2022/05/13 05:44:08;;;;;;;;;;;;;;;12.83;57.25;98285.75;4799458;29;19921;-77
2022/05/13 05:46:33;;;;;;;;;;;;;;;12.63;57.41;98297.69;4789105;29;20301;-78
2022/05/13 05:48:59;;;;;;;;;;;;;;;12.73;57.94;98287.81;4800563;29;19921;-77
2022/05/13 05:51:24;;;;;;;;;;;;;;;12.84;57.59;98285.72;4796118;29;20008;-77
2022/05/13 05:59:18;;;;;;;;;;;;;;;12.77;56.17;98309.38;4801076;29;20393;-78
2022/05/13 06:01:44;;;;;;;;;;;;;;;12.99;56.15;98297.31;4799697;29;19929;-77
2022/05/13 06:04:09;;;;;;;;;;;;;;;13.03;55.23;98298.06;4791453;29;19921;-82
2022/05/13 06:06:35;;;;;;;;;;;;;;;13.05;54.91;98317.06;4788632;29;20386;-77
2022/05/13 06:09:01;;;;;;;;;;;;;;;13.19;55.05;98318.31;4789465;29;20406;-77
2022/05/13 06:11:26;;;;;;;;;;;;;;;13.15;54.29;98314.09;4789446;29;19924;-78
2022/05/13 06:13:53;;;;;;;;;;;;;;;13.01;54.18;98310.28;4790404;29;19922;-78
2022/05/13 06:16:19;;;;;;;;;;;;;;;13.39;53.52;98311.53;4789229;29;20378;-78
2022/05/13 06:18:45;;;;;;;;;;;;;;;13.55;52.50;98317.88;4790502;29;19933;-79
2022/05/13 06:21:11;;;;;;;;;;;;;;;13.57;52.63;98304.81;4789665;29;19917;-79
2022/05/13 06:23:36;;;;;;;;;;;;;;;13.64;53.82;98304.50;4790064;29;19921;-78
2022/05/13 06:26:02;;;;;;;;;;;;;;;13.83;53.79;98301.16;4790485;29;19922;-79
2022/05/13 06:28:28;;;;;;;;;;;;;;;14.01;52.01;98297.00;4791306;29;19921;-78
2022/05/13 06:30:53;;;;;;;;;;;;;;;14.22;51.93;98320.47;4790654;29;19917;-78
2022/05/13 06:33:18;;;;;;;;;;;;;;;14.28;51.18;98319.38;4790194;29;19938;-76
2022/05/13 06:35:44;;;;;;;;;;;;;;;14.34;49.98;98307.81;4790568;29;19960;-78
2022/05/13 06:38:16;;;;;;;;;;;;;;;14.34;50.30;98318.25;4802870;29;20011;-79
2022/05/13 06:40:41;;;;;;;;;;;;;;;14.46;50.88;98302.13;4789121;29;19921;-78
2022/05/13 06:43:07;;;;;;;;;;;;;;;14.46;50.17;98312.56;4789950;29;19924;-79
2022/05/13 06:45:32;;;;;;;;;;;;;;;14.47;50.42;98314.25;4790133;29;19961;-78
2022/05/13 06:47:58;;;;;;;;;;;;;;;14.63;50.19;98319.72;4790420;29;20277;-82
2022/05/13 06:50:23;;;;;;;;;;;;;;;14.54;49.29;98323.56;4791590;29;19921;-78
2022/05/13 06:52:49;;;;;;;;;;;;;;;14.78;48.54;98319.06;4790582;29;19925;-78
2022/05/13 06:55:15;;;;;;;;;;;;;;;14.82;48.58;98325.00;4791552;29;19925;-78
2022/05/13 06:57:40;;;;;;;;;;;;;;;14.97;48.95;98316.50;4788975;29;19925;-79
2022/05/13 07:00:06;;;;;;;;;;;;;;;15.00;48.03;98316.38;4788942;29;19922;-78
2022/05/13 07:02:31;;;;;;;;;;;;;;;15.13;47.74;98334.97;4789728;29;20385;-78
2022/05/13 07:04:57;;;;;;;;;;;;;;;15.19;47.74;98335.56;4791214;29;20308;-77
2022/05/13 07:07:22;;;;;;;;;;;;;;;15.11;45.64;98334.19;4773430;30;19917;-78
2022/05/13 07:09:48;;;;;;;;;;;;;;;15.13;45.84;98312.31;4795778;29;19950;-78
2022/05/13 07:12:13;;;;;;;;;;;;;;;15.32;46.02;98321.97;4803140;29;19928;-76
2022/05/13 07:14:39;;;;;;;;;;;;;;;15.48;46.18;98322.94;4800491;29;20354;-80
2022/05/13 07:17:05;;;;;;;;;;;;;;;15.49;46.28;98327.28;4759358;29;20622;-79
2022/05/13 07:19:30;;;;;;;;;;;;;;;15.47;45.61;98319.50;4804593;29;19921;-79
2022/05/13 07:21:56;;;;;;;;;;;;;;;15.64;45.58;98316.16;4806161;29;20412;-78
2022/05/13 07:24:21;;;;;;;;;;;;;;;15.69;43.78;98329.84;4793597;29;19986;-79
2022/05/13 07:26:49;;;;;;;;;;;;;;;15.70;45.08;98321.09;4800459;29;20453;-77
2022/05/13 07:29:14;;;;;;;;;;;;;;;15.79;45.00;98319.81;4798221;29;20032;-78
2022/05/13 07:31:40;;;;;;;;;;;;;;;15.93;45.41;98327.84;4793423;29;20405;-77
2022/05/13 07:34:07;;;;;;;;;;;;;;;16.18;43.76;98335.41;4798100;29;19989;-78
2022/05/13 07:36:33;;;;;;;;;;;;;;;16.24;42.90;98322.00;4800573;29;19917;-77
2022/05/13 07:41:42;;;;;;;;;;;;;;;16.90;42.10;98338.88;4795131;29;19921;-80
2022/05/13 07:44:08;;;;;;;;;;;;;;;17.01;41.80;98318.22;4795200;29;19939;-78
2022/05/13 07:46:33;;;;;;;;;;;;;;;16.97;42.44;98317.53;4796775;29;20417;-79
2022/05/13 07:48:59;;;;;;;;;;;;;;;16.79;42.08;98336.81;4800582;29;19924;-78
2022/05/13 07:51:26;;;;;;;;;;;;;;;16.57;41.84;98329.13;4796662;29;19968;-79
2022/05/13 07:53:52;;;;;;;;;;;;;;;16.68;42.56;98332.06;4793295;29;20523;-78
2022/05/13 07:56:17;;;;;;;;;;;;;;;16.61;42.59;98321.97;4800212;29;19921;-77
2022/05/13 07:58:43;;;;;;;;;;;;;;;16.55;42.15;98340.63;4801641;29;20077;-77
2022/05/13 08:01:08;;;;;;;;;;;;;;;16.76;41.29;98340.41;4796988;29;19970;-77
2022/05/13 08:03:34;;;;;;;;;;;;;;;17.08;40.85;98331.84;4794405;29;19921;-77
2022/05/13 08:06:03;;;;;;;;;;;;;;;17.30;41.14;98335.03;4795513;29;20282;-76
2022/05/13 08:08:30;;;;;;;;;;;;;;;17.45;39.88;98330.75;4799368;29;19917;-79
2022/05/13 08:10:59;;;;;;;;;;;;;;;17.71;39.79;98353.81;4798398;29;19945;-78
2022/05/13 08:13:24;;;;;;;;;;;;;;;17.71;38.81;98334.59;4791423;29;20428;-78
2022/05/13 08:15:50;;;;;;;;;;;;;;;17.60;38.63;98348.31;4796491;29;19964;-79
2022/05/13 08:18:15;;;;;;;;;;;;;;;17.54;39.42;98332.88;4792904;29;19925;-78
2022/05/13 08:20:41;;;;;;;;;;;;;;;17.46;38.56;98341.19;4800720;29;19921;-77
2022/05/13 08:23:07;;;;;;;;;;;;;;;17.24;39.18;98345.84;4800515;29;20004;-78
2022/05/13 08:25:33;;;;;;;;;;;;;;;17.20;38.73;98370.53;4794176;29;20066;-78
2022/05/13 08:27:59;;;;;;;;;;;;;;;17.12;39.30;98344.69;4796188;29;19974;-78
2022/05/13 08:30:25;;;;;;;;;;;;;;;17.34;39.62;98338.34;4799962;29;20015;-78
2022/05/13 08:32:51;;;;;;;;;;;;;;;17.62;38.44;98333.31;4788571;29;20012;-81
2022/05/13 08:35:16;;;;;;;;;;;;;;;18.13;38.25;98335.81;4773123;29;19948;-76
2022/05/13 08:37:46;;;;;;;;;;;;;;;18.60;36.85;98351.53;4799451;29;20386;-77
2022/05/13 08:40:26;;;;;;;;;;;;;;;18.12;35.06;98334.97;4800237;29;20356;-78
2022/05/13 08:42:52;;;;;;;;;;;;;;;18.29;36.02;98349.78;4793835;29;19975;-76
2022/05/13 08:45:18;;;;;;;;;;;;;;;18.76;36.68;98325.22;4804809;29;19928;-79
2022/05/13 08:47:43;;;;;;;;;;;;;;;19.07;34.99;98336.56;4792620;29;20397;-79
2022/05/13 08:50:13;;;;;;;;;;;;;;;18.86;34.80;98344.78;4799394;29;19917;-77
2022/05/13 08:55:29;;;;;;;;;;;;;;;18.63;35.56;98340.81;4796942;29;19933;-78
2022/05/13 08:57:54;;;;;;;;;;;;;;;18.93;35.78;98316.38;4784120;29;20436;-77
2022/05/13 09:00:36;;;;;;;;;;;;;;;19.18;34.98;98310.47;4801283;29;19929;-77
2022/05/13 09:03:05;;;;;;;;;;;;;;;19.56;34.26;98323.88;4803650;29;20425;-77
2022/05/13 09:05:41;;;;;;;;;;;;;;;19.18;33.26;98319.19;4804555;29;19977;-78
2022/05/13 09:08:07;;;;;;;;;;;;;;;18.66;33.90;98343.28;4780894;30;19928;-77
2022/05/13 09:10:35;;;;;;;;;;;;;;;18.35;35.00;98330.22;4799530;29;19917;-78
2022/05/13 09:13:06;;;;;;;;;;;;;;;18.32;35.57;98330.38;4772007;30;19944;-78
2022/05/13 09:15:34;;;;;;;;;;;;;;;18.03;35.46;98325.00;4800609;29;20411;-78
2022/05/13 09:18:14;;;;;;;;;;;;;;;18.39;35.70;98337.00;4793906;29;19917;-78
2022/05/13 09:20:42;;;;;;;;;;;;;;;18.25;35.87;98330.75;4788132;29;19928;-78
2022/05/13 09:23:11;;;;;;;;;;;;;;;17.85;36.34;98331.25;4771741;30;20304;-78
2022/05/13 09:25:36;;;;;;;;;;;;;;;17.58;36.19;98339.66;4799316;29;20412;-78
2022/05/13 09:28:12;;;;;;;;;;;;;;;17.19;36.80;98367.06;4793530;29;19928;-79
2022/05/13 09:30:38;;;;;;;;;;;;;;;16.94;37.14;98348.25;4793748;29;20338;-78
2022/05/13 09:33:22;;;;;;;;;;;;;;;17.20;37.30;98318.09;4800209;29;19924;-78
2022/05/13 09:35:48;;;;;;;;;;;;;;;17.52;36.75;98334.75;4799449;29;19975;-78
2022/05/13 09:38:16;;;;;;;;;;;;;;;17.75;36.42;98323.06;4793298;29;20842;-78
2022/05/13 09:40:42;;;;;;;;;;;;;;;17.81;36.72;98342.84;4794748;29;19921;-77
2022/05/13 09:43:07;;;;;;;;;;;;;;;17.92;36.19;98317.72;4798744;29;19918;-79
2022/05/13 09:45:33;;;;;;;;;;;;;;;17.75;36.58;98320.44;4795696;29;19928;-78
2022/05/13 09:48:20;;;;;;;;;;;;;;;17.70;36.27;98325.91;4791839;29;19917;-78
2022/05/13 09:50:49;;;;;;;;;;;;;;;17.58;36.90;98326.53;4794526;29;19921;-77
2022/05/13 09:53:20;;;;;;;;;;;;;;;17.67;36.83;98317.34;4786888;29;19936;-79
2022/05/13 09:55:46;;;;;;;;;;;;;;;17.86;37.04;98322.47;4796708;29;20421;-77
2022/05/13 09:58:15;;;;;;;;;;;;;;;18.08;35.95;98322.13;4800433;29;20028;-81
2022/05/13 10:00:47;;;;;;;;;;;;;;;17.80;35.71;98315.78;4791375;29;20329;-78
2022/05/13 10:03:16;;;;;;;;;;;;;;;18.23;35.58;98326.50;4791733;29;19928;-78
2022/05/13 10:05:42;;;;;;;;;;;;;;;18.36;34.82;98340.63;4795820;29;19925;-78
2022/05/13 10:08:08;;;;;;;;;;;;;;;17.98;35.12;98351.50;4773090;29;20004;-80
2022/05/13 10:16:47;;;;;;;;;;;;;;;17.31;36.20;98325.41;4786309;29;19921;-77
2022/05/13 10:19:18;;;;;;;;;;;;;;;17.15;37.00;98331.44;4794809;29;19969;-77
2022/05/13 10:21:55;;;;;;;;;;;;;;;17.01;37.46;98313.81;4792918;29;19921;-77
2022/05/13 10:24:21;;;;;;;;;;;;;;;17.08;38.08;98316.13;4786326;29;19937;-78
2022/05/13 10:26:46;;;;;;;;;;;;;;;17.06;37.91;98321.44;4787131;29;20032;-78
2022/05/13 10:29:13;;;;;;;;;;;;;;;17.06;38.04;98331.94;4799482;29;19928;-80
2022/05/13 10:31:41;;;;;;;;;;;;;;;17.09;38.45;98309.94;4788469;29;19949;-80
2022/05/13 10:34:25;;;;;;;;;;;;;;;17.36;37.13;98336.47;4772791;29;19943;-77
2022/05/13 10:37:09;;;;;;;;;;;;;;;18.15;35.68;98305.09;4800408;29;19920;-80
2022/05/13 10:39:44;;;;;;;;;;;;;;;18.83;32.50;98316.06;4801904;29;19953;-82
2022/05/13 10:42:12;;;;;;;;;;;;;;;19.89;32.24;98309.63;4791225;29;20358;-78
2022/05/13 10:44:52;;;;;;;;;;;;;;;20.11;30.88;98302.00;4790809;29;19917;-78
2022/05/13 10:47:40;;;;;;;;;;;;;;;19.86;32.27;98301.91;4807152;29;20003;-79
2022/05/13 10:50:19;;;;;;;;;;;;;;;19.72;31.06;98329.09;4794470;29;20001;-78
2022/05/13 10:52:54;;;;;;;;;;;;;;;19.47;32.29;98293.75;4774259;30;19925;-78
2022/05/13 10:55:32;;;;;;;;;;;;;;;18.96;32.00;98305.66;4796650;29;19921;-78
2022/05/13 10:58:13;;;;;;;;;;;;;;;18.74;32.71;98312.19;4795332;29;19924;-78
2022/05/13 11:00:41;;;;;;;;;;;;;;;18.33;32.17;98319.81;4789032;30;19922;-80
2022/05/13 11:03:14;;;;;;;;;;;;;;;18.31;32.62;98297.19;4802890;29;19939;-77
2022/05/13 11:05:42;;;;;;;;;;;;;;;18.33;33.69;98313.72;4798568;29;19931;-79
2022/05/13 11:08:12;;;;;;;;;;;;;;;18.61;32.16;98310.34;4794076;29;19924;-78
2022/05/13 11:10:40;;;;;;;;;;;;;;;18.89;32.17;98302.56;4791645;29;20298;-78
2022/05/13 11:13:24;;;;;;;;;;;;;;;18.92;32.05;98302.38;4782517;29;20509;-76
2022/05/13 11:15:56;;;;;;;;;;;;;;;18.78;32.59;98300.56;4790279;29;19922;-77
2022/05/13 11:18:25;;;;;;;;;;;;;;;18.87;32.22;98303.56;4789003;29;20290;-80
2022/05/13 11:20:53;;;;;;;;;;;;;;;19.54;31.52;98302.09;4789140;29;20313;-78
2022/05/13 11:23:26;;;;;;;;;;;;;;;20.14;30.41;98291.28;4765561;30;19990;-77
2022/05/13 11:25:56;;;;;;;;;;;;;;;20.46;29.70;98290.97;4789779;29;19929;-79
2022/05/13 11:28:32;;;;;;;;;;;;;;;20.10;29.30;98288.94;4788943;29;19953;-79
2022/05/13 11:31:01;;;;;;;;;;;;;;;20.26;29.52;98303.66;4788608;29;19990;-78
2022/05/13 11:33:45;;;;;;;;;;;;;;;20.70;28.39;98296.41;4778942;29;19921;-77
2022/05/13 11:36:31;;;;;;;;;;;;;;;21.92;28.17;98289.72;4790574;29;19971;-78
2022/05/13 11:38:56;;;;;;;;;;;;;;;23.02;26.62;98300.03;4790203;29;19921;-77
2022/05/13 11:41:23;;;;;;;;;;;;;;;23.15;25.69;98294.66;4790553;29;19946;-81
2022/05/13 11:43:54;;;;;;;;;;;;;;;23.11;26.02;98307.28;4787927;29;19928;-81
2022/05/13 11:46:41;;;;;;;;;;;;;;;23.04;25.01;98292.81;4788836;29;20299;-79
2022/05/13 11:49:11;;;;;;;;;;;;;;;23.65;24.63;98290.72;4781125;29;20478;-77
2022/05/13 11:51:36;;;;;;;;;;;;;;;24.11;25.01;98302.91;4786170;29;19929;-78
2022/05/13 11:54:02;;;;;;;;;;;;;;;24.38;22.89;98305.16;4789217;29;19925;-78
2022/05/13 11:56:32;;;;;;;;;;;;;;;24.28;24.16;98318.28;4789518;29;19928;-83
2022/05/13 11:59:03;;;;;;;;;;;;;;;24.38;23.89;98315.75;4788293;29;19921;-77
2022/05/13 12:01:38;;;;;;;;;;;;;;;23.40;24.14;98290.94;4797210;29;19921;-78
2022/05/13 12:04:16;;;;;;;;;;;;;;;22.94;25.01;98282.09;4797333;29;19925;-78
2022/05/13 12:06:50;;;;;;;;;;;;;;;22.64;24.02;98308.22;4793214;29;19981;-76
2022/05/13 12:09:17;;;;;;;;;;;;;;;21.90;24.38;98303.03;4797812;29;20013;-78
2022/05/13 12:11:52;;;;;;;;;;;;;;;21.91;25.49;98306.50;4800619;29;19918;-78
2022/05/13 12:14:24;;;;;;;;;;;;;;;21.81;25.65;98330.94;4797436;29;19977;-77
2022/05/13 12:17:22;;;;;;;;;;;;;;;22.26;25.98;98298.66;4792955;29;19921;-78
2022/05/13 12:20:11;;;;;;;;;;;;;;;23.13;24.92;98272.75;4787516;29;19967;-80
2022/05/13 12:22:46;;;;;;;;;;;;;;;24.35;22.75;98295.59;4796198;29;20378;-79
2022/05/13 12:25:36;;;;;;;;;;;;;;;24.27;23.35;98311.28;4789285;29;19925;-79
2022/05/13 12:28:01;;;;;;;;;;;;;;;22.95;23.25;98341.13;4784976;30;19921;-79
2022/05/13 12:30:29;;;;;;;;;;;;;;;22.11;23.81;98297.97;4787682;30;20065;-77
2022/05/13 12:32:54;;;;;;;;;;;;;;;21.13;25.53;98320.72;4773011;30;19925;-77
2022/05/13 12:38:18;;;;;;;;;;;;;;;20.40;27.32;98309.81;4788001;30;19929;-78
2022/05/13 12:41:10;;;;;;;;;;;;;;;20.60;27.65;98303.25;4789089;29;20363;-79
2022/05/13 12:43:53;;;;;;;;;;;;;;;20.63;27.46;98301.25;4789489;30;19921;-78
2022/05/13 12:46:39;;;;;;;;;;;;;;;21.26;26.96;98300.47;4788691;29;19925;-77
2022/05/13 12:49:07;;;;;;;;;;;;;;;21.69;26.12;98317.75;4788748;30;19930;-78
2022/05/13 12:51:45;;;;;;;;;;;;;;;21.40;26.56;98278.44;4787719;30;20020;-79
2022/05/13 12:54:11;;;;;;;;;;;;;;;21.52;26.17;98287.25;4788745;29;19925;-77
2022/05/13 12:56:38;;;;;;;;;;;;;;;21.25;26.61;98301.41;4788917;30;19928;-80
2022/05/13 12:59:11;;;;;;;;;;;;;;;20.59;27.59;98296.31;4772747;30;19949;-82
2022/05/13 13:01:38;;;;;;;;;;;;;;;20.96;26.93;98290.22;4799276;29;19929;-82
2022/05/13 13:04:05;;;;;;;;;;;;;;;21.14;25.97;98296.03;4778541;29;20450;-78
2022/05/13 13:06:41;;;;;;;;;;;;;;;22.11;25.98;98284.75;4784825;29;19932;-79
2022/05/13 13:09:10;;;;;;;;;;;;;;;23.56;24.02;98288.78;4778114;29;19921;-79
2022/05/13 13:11:38;;;;;;;;;;;;;;;23.65;24.04;98280.13;4799480;29;19917;-77
2022/05/13 13:14:04;;;;;;;;;;;;;;;23.74;24.27;98290.00;4793545;29;19921;-83
2022/05/13 13:16:33;;;;;;;;;;;;;;;24.00;23.36;98310.88;4779499;29;19917;-82
2022/05/13 13:19:08;;;;;;;;;;;;;;;23.60;23.28;98329.94;4800234;29;19922;-79
2022/05/13 13:21:33;;;;;;;;;;;;;;;23.41;23.05;98290.81;4798776;29;19927;-80
2022/05/13 13:24:00;;;;;;;;;;;;;;;23.14;23.57;98303.53;4789221;29;19917;-78
2022/05/13 13:26:25;;;;;;;;;;;;;;;23.69;23.52;98321.28;4798057;29;19982;-79